createdAt,value
2023-05-15T00:02:15.644Z,37.29
2023-05-15T00:04:46.290Z,37.28
2023-05-15T00:07:16.952Z,37.35
2023-05-15T00:09:47.494Z,37.36
2023-05-15T00:12:18.153Z,37.30
2023-05-15T00:14:48.763Z,37.30
2023-05-15T00:17:19.240Z,37.40
2023-05-15T00:19:49.794Z,37.33
2023-05-15T00:22:20.476Z,37.37
2023-05-15T00:24:51.073Z,37.33
2023-05-15T00:27:21.733Z,37.50
2023-05-15T00:29:52.401Z,37.49
2023-05-15T00:32:23.127Z,37.43
2023-05-15T00:34:55.619Z,37.53
2023-05-15T00:37:26.625Z,37.63
2023-05-15T00:39:57.153Z,37.54
2023-05-15T00:42:29.230Z,37.59
2023-05-15T00:45:01.948Z,37.67
2023-05-15T00:47:34.264Z,37.58
2023-05-15T00:50:06.365Z,37.56
2023-05-15T00:52:37.686Z,37.68
2023-05-15T00:55:08.929Z,37.59
2023-05-15T00:57:40.671Z,37.80
2023-05-15T01:00:12.028Z,37.65
2023-05-15T01:02:42.705Z,37.65
2023-05-15T01:05:13.424Z,37.72
2023-05-15T01:07:48.711Z,37.78
2023-05-15T01:10:20.776Z,37.86
2023-05-15T01:12:52.382Z,37.82
2023-05-15T01:15:23.080Z,37.72
2023-05-15T01:17:53.884Z,37.70
2023-05-15T01:20:25.912Z,37.89
2023-05-15T01:23:03.739Z,37.85
2023-05-15T01:25:54.279Z,37.91
2023-05-15T01:28:26.616Z,37.98
2023-05-15T01:30:57.640Z,37.90
2023-05-15T01:33:30.368Z,37.87
2023-05-15T01:36:06.086Z,37.92
2023-05-15T01:38:39.616Z,38.05
2023-05-15T01:41:12.738Z,38.17
2023-05-15T01:43:45.521Z,38.09
2023-05-15T01:46:18.093Z,38.07
2023-05-15T01:48:51.005Z,38.16
2023-05-15T01:51:24.040Z,38.10
2023-05-15T01:53:55.101Z,38.13
2023-05-15T01:56:27.159Z,38.16
2023-05-15T01:59:00.266Z,38.14
2023-05-15T02:01:33.737Z,38.22
2023-05-15T02:04:05.078Z,38.21
2023-05-15T02:06:36.290Z,38.29
2023-05-15T02:09:07.343Z,38.25
2023-05-15T02:11:38.349Z,38.35
2023-05-15T02:14:10.184Z,38.41
2023-05-15T02:16:41.309Z,38.34
2023-05-15T02:19:12.145Z,38.34
2023-05-15T02:21:44.544Z,38.50
2023-05-15T02:24:16.937Z,38.45
2023-05-15T02:26:53.668Z,38.43
2023-05-15T02:29:28.687Z,38.37
2023-05-15T02:32:03.448Z,38.49
2023-05-15T02:34:38.325Z,38.54
2023-05-15T02:37:12.044Z,38.54
2023-05-15T02:39:43.605Z,38.59
2023-05-15T02:42:16.837Z,38.58
2023-05-15T02:44:50.143Z,38.66
2023-05-15T02:47:21.566Z,38.79
2023-05-15T02:49:52.922Z,38.72
2023-05-15T02:52:23.810Z,38.75
2023-05-15T02:54:54.879Z,38.67
2023-05-15T02:57:25.747Z,38.72
2023-05-15T02:59:57.297Z,38.75
2023-05-15T03:02:27.898Z,38.80
2023-05-15T03:04:58.544Z,38.83
2023-05-15T03:07:29.159Z,38.85
2023-05-15T03:09:59.785Z,38.74
2023-05-15T03:12:30.552Z,38.88
2023-05-15T03:15:01.793Z,39.03
2023-05-15T03:17:32.388Z,38.91
2023-05-15T03:20:03.079Z,39.05
2023-05-15T03:22:33.767Z,39.05
2023-05-15T03:25:04.367Z,39.20
2023-05-15T03:27:34.887Z,39.08
2023-05-15T03:30:06.096Z,39.03
2023-05-15T03:32:36.747Z,39.11
2023-05-15T03:35:07.895Z,39.13
2023-05-15T03:37:38.600Z,39.24
2023-05-15T03:40:11.041Z,39.15
2023-05-15T03:42:41.895Z,39.28
2023-05-15T03:45:12.843Z,39.28
2023-05-15T03:47:43.470Z,39.44
2023-05-15T03:50:14.417Z,39.41
2023-05-15T03:52:45.082Z,39.42
2023-05-15T03:55:15.631Z,39.41
2023-05-15T03:57:46.263Z,39.51
2023-05-15T04:00:19.246Z,39.50
2023-05-15T04:02:51.756Z,39.57
2023-05-15T04:05:22.850Z,39.52
2023-05-15T04:07:53.543Z,39.41
2023-05-15T04:10:24.304Z,39.62
2023-05-15T04:12:55.169Z,39.58
2023-05-15T04:15:27.323Z,39.64
2023-05-15T04:17:58.205Z,39.66
2023-05-15T04:20:28.818Z,39.65
2023-05-15T04:22:59.366Z,39.68
2023-05-15T04:25:29.977Z,39.79
2023-05-15T04:28:00.651Z,39.70
2023-05-15T04:30:31.790Z,39.94
2023-05-15T04:33:02.514Z,39.89
2023-05-15T04:35:33.161Z,39.99
2023-05-15T04:38:03.768Z,40.00
2023-05-15T04:40:34.390Z,39.94
2023-05-15T04:43:06.058Z,39.95
2023-05-15T04:45:36.782Z,39.99
2023-05-15T04:48:07.808Z,39.94
2023-05-15T04:50:38.400Z,39.99
2023-05-15T04:53:08.992Z,40.05
2023-05-15T04:55:39.662Z,40.32
2023-05-15T04:58:10.436Z,40.17
2023-05-15T05:00:41.316Z,40.22
2023-05-15T05:03:12.031Z,40.12
2023-05-15T05:05:42.590Z,40.20
2023-05-15T05:08:13.262Z,40.25
2023-05-15T05:10:43.870Z,40.35
2023-05-15T05:13:14.451Z,40.43
2023-05-15T05:15:45.159Z,40.42
2023-05-15T05:18:15.840Z,40.37
2023-05-15T05:20:46.395Z,40.46
2023-05-15T05:23:18.324Z,40.40
2023-05-15T05:25:48.932Z,40.51
2023-05-15T05:28:19.460Z,40.52
2023-05-15T05:30:50.552Z,40.59
2023-05-15T05:33:21.076Z,40.60
2023-05-15T05:35:51.935Z,40.72
2023-05-15T05:38:22.433Z,40.63
2023-05-15T05:40:53.014Z,40.70
2023-05-15T05:43:23.575Z,40.77
2023-05-15T05:45:54.148Z,40.65
2023-05-15T05:48:24.680Z,40.78
2023-05-15T05:50:55.996Z,40.87
2023-05-15T05:53:26.680Z,40.79
2023-05-15T05:55:57.414Z,40.88
2023-05-15T05:58:28.019Z,40.91
2023-05-15T06:00:58.745Z,40.88
2023-05-15T06:03:29.789Z,40.93
2023-05-15T06:06:00.380Z,41.04
2023-05-15T06:08:31.588Z,41.13
2023-05-15T06:11:02.246Z,41.24
2023-05-15T06:13:32.817Z,41.22
2023-05-15T06:16:03.537Z,41.07
2023-05-15T06:18:34.168Z,41.21
2023-05-15T06:21:04.847Z,41.24
2023-05-15T06:23:35.450Z,41.28
2023-05-15T06:26:06.622Z,41.30
2023-05-15T06:28:37.275Z,41.35
2023-05-15T06:31:08.081Z,41.59
2023-05-15T06:33:38.721Z,41.66
2023-05-15T06:36:09.578Z,41.74
2023-05-15T06:38:40.213Z,41.71
2023-05-15T06:41:10.747Z,41.89
2023-05-15T06:43:41.292Z,41.95
2023-05-15T06:46:11.989Z,42.24
2023-05-15T06:48:42.677Z,42.17
2023-05-15T06:51:13.340Z,41.95
2023-05-15T06:53:44.091Z,42.15
2023-05-15T06:56:14.697Z,42.29
2023-05-15T06:58:45.365Z,42.32
2023-05-15T07:01:15.984Z,42.43
2023-05-15T07:03:46.536Z,42.55
2023-05-15T07:06:17.176Z,42.77
2023-05-15T07:08:47.779Z,42.97
2023-05-15T07:11:18.386Z,42.96
2023-05-15T07:13:49.827Z,43.04
2023-05-15T07:16:21.363Z,43.13
2023-05-15T07:18:52.080Z,43.09
2023-05-15T07:21:23.057Z,43.21
2023-05-15T07:23:53.617Z,43.27
2023-05-15T07:26:34.281Z,43.36
2023-05-15T07:29:07.156Z,43.60
2023-05-15T07:31:38.502Z,43.46
2023-05-15T07:34:09.100Z,43.85
2023-05-15T07:36:39.788Z,44.22
2023-05-15T07:39:10.524Z,43.98
2023-05-15T07:41:41.123Z,44.09
2023-05-15T07:44:11.814Z,43.86
2023-05-15T07:46:42.472Z,43.86
2023-05-15T07:49:13.027Z,43.92
2023-05-15T07:51:43.883Z,44.22
2023-05-15T07:54:14.488Z,44.20
2023-05-15T07:56:45.168Z,44.41
2023-05-15T07:59:16.276Z,44.47
2023-05-15T08:01:47.014Z,44.36
2023-05-15T08:04:17.735Z,44.55
2023-05-15T08:06:48.305Z,44.76
2023-05-15T08:09:18.903Z,44.93
2023-05-15T08:11:49.433Z,45.28
2023-05-15T08:14:20.090Z,45.08
2023-05-15T08:16:51.785Z,45.02
2023-05-15T08:19:23.955Z,45.41
2023-05-15T08:21:54.620Z,45.25
2023-05-15T08:24:25.148Z,45.26
2023-05-15T08:26:55.779Z,45.52
2023-05-15T08:29:26.404Z,45.72
2023-05-15T08:31:56.993Z,45.49
2023-05-15T08:34:27.667Z,45.61
2023-05-15T08:36:58.662Z,45.85
2023-05-15T08:39:29.295Z,45.95
2023-05-15T08:42:04.547Z,46.12
2023-05-15T08:44:35.225Z,46.24
2023-05-15T08:47:06.996Z,45.95
2023-05-15T08:49:44.172Z,46.07
2023-05-15T08:52:14.749Z,46.36
2023-05-15T08:54:47.975Z,46.29
2023-05-15T08:57:19.115Z,46.62
2023-05-15T08:59:49.778Z,46.28
2023-05-15T09:02:20.543Z,46.69
2023-05-15T09:04:51.148Z,46.75
2023-05-15T09:07:21.966Z,46.68
2023-05-15T09:09:52.602Z,46.85
2023-05-15T09:12:25.477Z,46.80
2023-05-15T09:15:09.265Z,47.36
2023-05-15T09:17:40.158Z,47.08
2023-05-15T09:20:25.429Z,47.61
2023-05-15T09:22:56.045Z,47.97
2023-05-15T09:25:39.707Z,48.28
2023-05-15T09:28:10.918Z,47.84
2023-05-15T09:30:43.014Z,47.80
2023-05-15T09:33:13.769Z,48.04
2023-05-15T09:35:45.427Z,47.84
2023-05-15T09:38:17.029Z,48.78
2023-05-15T09:40:47.727Z,48.21
2023-05-15T09:43:18.445Z,48.19
2023-05-15T09:45:49.830Z,48.20
2023-05-15T09:48:20.638Z,48.31
2023-05-15T09:50:51.386Z,48.27
2023-05-15T09:53:23.046Z,48.66
2023-05-15T09:55:54.724Z,48.84
2023-05-15T09:58:25.324Z,48.75
2023-05-15T10:00:55.884Z,48.76
2023-05-15T10:03:26.494Z,48.69
2023-05-15T10:06:03.623Z,48.71
2023-05-15T10:08:35.041Z,49.20
2023-05-15T10:11:05.990Z,49.09
2023-05-15T10:13:37.351Z,48.97
2023-05-15T10:16:08.475Z,49.02
2023-05-15T10:18:41.626Z,49.28
2023-05-15T10:21:13.108Z,49.73
2023-05-15T10:23:43.920Z,49.49
2023-05-15T10:26:17.428Z,49.51
2023-05-15T10:28:48.492Z,49.93
2023-05-15T10:31:19.977Z,49.39
2023-05-15T10:33:51.526Z,49.57
2023-05-15T10:36:22.323Z,49.90
2023-05-15T10:38:53.313Z,50.10
2023-05-15T10:41:24.205Z,50.14
2023-05-15T10:43:55.212Z,50.01
2023-05-15T10:46:26.242Z,50.17
2023-05-15T10:48:57.034Z,50.03
2023-05-15T10:51:28.296Z,50.16
2023-05-15T10:53:59.137Z,50.46
2023-05-15T10:56:30.796Z,50.32
2023-05-15T10:59:06.424Z,50.76
2023-05-15T11:01:38.116Z,50.25
2023-05-15T11:04:13.511Z,50.52
2023-05-15T11:06:44.983Z,50.68
2023-05-15T11:09:41.101Z,50.60
2023-05-15T11:12:13.023Z,50.65
2023-05-15T11:14:44.250Z,50.91
2023-05-15T11:17:16.669Z,51.80
2023-05-15T11:20:00.388Z,50.88
2023-05-15T11:22:32.639Z,51.17
2023-05-15T11:25:05.379Z,50.99
2023-05-15T11:27:40.764Z,51.14
2023-05-15T11:30:15.894Z,50.98
2023-05-15T11:32:49.870Z,51.45
2023-05-15T11:35:22.676Z,51.73
2023-05-15T11:37:54.346Z,51.59
2023-05-15T11:40:26.461Z,51.84
2023-05-15T11:43:04.431Z,51.45
2023-05-15T11:45:35.954Z,51.37
2023-05-15T11:48:08.054Z,51.68
2023-05-15T11:50:38.753Z,51.92
2023-05-15T11:53:10.663Z,51.90
2023-05-15T11:55:42.376Z,52.04
2023-05-15T11:58:17.185Z,51.98
2023-05-15T12:00:48.058Z,52.28
2023-05-15T12:03:20.469Z,51.82
2023-05-15T12:05:58.908Z,52.31
2023-05-15T12:08:34.369Z,52.30
2023-05-15T12:11:05.796Z,52.19
2023-05-15T12:13:36.915Z,52.29
2023-05-15T12:16:08.011Z,52.58
2023-05-15T12:18:38.720Z,52.53
2023-05-15T12:21:11.199Z,52.34
2023-05-15T12:23:42.063Z,52.79
2023-05-15T12:26:12.841Z,53.26
2023-05-15T12:28:43.485Z,52.74
2023-05-15T12:31:14.311Z,52.72
2023-05-15T12:33:45.253Z,52.62
2023-05-15T12:36:16.739Z,54.29
2023-05-15T12:38:47.407Z,53.26
2023-05-15T12:41:20.480Z,53.06
2023-05-15T12:43:52.198Z,52.85
2023-05-15T12:46:25.980Z,53.99
2023-05-15T12:48:58.588Z,53.22
2023-05-15T12:51:30.174Z,53.49
2023-05-15T12:54:01.281Z,54.07
2023-05-15T12:56:32.269Z,53.38
2023-05-15T12:59:02.882Z,53.60
2023-05-15T13:01:33.805Z,53.85
2023-05-15T13:04:05.055Z,53.56
2023-05-15T13:06:45.734Z,53.81
2023-05-15T13:09:22.378Z,53.79
2023-05-15T13:11:52.973Z,54.32
2023-05-15T13:14:27.283Z,54.02
2023-05-15T13:17:00.462Z,53.83
2023-05-15T13:19:31.061Z,54.08
2023-05-15T13:22:02.084Z,54.03
2023-05-15T13:24:32.874Z,53.72
2023-05-15T13:27:03.864Z,53.91
2023-05-15T13:29:34.677Z,54.14
2023-05-15T13:32:06.179Z,54.02
2023-05-15T13:34:36.983Z,53.94
2023-05-15T13:37:08.005Z,54.21
2023-05-15T13:39:39.258Z,54.18
2023-05-15T13:42:10.147Z,54.04
2023-05-15T13:44:40.902Z,54.17
2023-05-15T13:47:11.896Z,54.03
2023-05-15T13:49:42.965Z,54.38
2023-05-15T13:52:13.779Z,54.77
2023-05-15T13:54:44.551Z,54.68
2023-05-15T13:57:15.394Z,54.76
2023-05-15T13:59:46.206Z,54.60
2023-05-15T14:02:16.973Z,54.68
2023-05-15T14:04:47.925Z,54.90
2023-05-15T14:07:18.739Z,54.51
2023-05-15T14:09:49.517Z,54.88
2023-05-15T14:12:21.268Z,54.43
2023-05-15T14:14:52.056Z,54.92
2023-05-15T14:17:23.276Z,54.88
2023-05-15T14:19:54.221Z,54.68
2023-05-15T14:22:25.484Z,54.81
2023-05-15T14:24:56.295Z,55.23
2023-05-15T14:27:27.213Z,55.19
2023-05-15T14:29:57.948Z,54.90
2023-05-15T14:32:28.769Z,54.92
2023-05-15T14:35:00.167Z,54.89
2023-05-15T14:37:31.670Z,55.14
2023-05-15T14:40:02.412Z,55.23
2023-05-15T14:42:33.246Z,55.10
2023-05-15T14:45:05.032Z,54.95
2023-05-15T14:47:35.886Z,55.10
2023-05-15T14:50:09.284Z,55.10
2023-05-15T14:52:40.092Z,55.40
2023-05-15T14:55:11.390Z,55.48
2023-05-15T14:57:42.206Z,55.27
2023-05-15T15:00:15.448Z,55.42
2023-05-15T15:02:47.206Z,55.20
2023-05-15T15:05:18.814Z,55.41
2023-05-15T15:08:06.146Z,55.44
2023-05-15T15:10:37.925Z,55.47
2023-05-15T15:13:10.222Z,55.52
2023-05-15T15:15:41.391Z,56.68
2023-05-15T15:18:12.138Z,56.01
2023-05-15T15:20:45.477Z,55.86
2023-05-15T15:23:16.434Z,55.74
2023-05-15T15:25:47.178Z,55.69
2023-05-15T15:28:17.960Z,55.74
2023-05-15T15:30:48.772Z,55.93
2023-05-15T15:33:19.709Z,56.11
2023-05-15T15:35:50.957Z,56.20
2023-05-15T15:38:21.755Z,55.80
2023-05-15T15:40:52.543Z,56.51
2023-05-15T15:43:23.364Z,56.66
2023-05-15T15:45:54.671Z,56.66
2023-05-15T15:48:25.523Z,56.34
2023-05-15T15:50:57.117Z,56.00
2023-05-15T15:53:27.911Z,56.27
2023-05-15T15:55:58.649Z,56.49
2023-05-15T15:58:30.872Z,56.48
2023-05-15T16:01:02.197Z,56.59
2023-05-15T16:03:33.693Z,56.57
2023-05-15T16:06:04.761Z,56.88
2023-05-15T16:08:35.550Z,56.63
2023-05-15T16:11:06.395Z,56.46
2023-05-15T16:13:38.313Z,56.93
2023-05-15T16:16:10.693Z,56.64
2023-05-15T16:18:41.378Z,56.81
2023-05-15T16:21:12.145Z,56.82
2023-05-15T16:23:43.206Z,56.83
2023-05-15T16:26:14.118Z,57.67
2023-05-15T16:28:44.933Z,57.85
2023-05-15T16:31:15.860Z,57.02
2023-05-15T16:33:46.754Z,56.89
2023-05-15T16:36:17.705Z,57.27
2023-05-15T16:38:48.493Z,57.35
2023-05-15T16:41:19.184Z,57.07
2023-05-15T16:43:50.111Z,57.08
2023-05-15T16:46:20.886Z,57.18
2023-05-15T16:48:51.854Z,57.26
2023-05-15T16:51:22.825Z,57.49
2023-05-15T16:53:54.120Z,57.52
2023-05-15T16:56:25.197Z,57.31
2023-05-15T16:58:56.256Z,57.33
2023-05-15T17:01:27.082Z,58.08
2023-05-15T17:03:58.279Z,57.50
2023-05-15T17:06:29.124Z,57.61
2023-05-15T17:09:00.239Z,57.38
2023-05-15T17:11:31.219Z,57.95
2023-05-15T17:14:02.141Z,57.67
2023-05-15T17:16:33.100Z,58.19
2023-05-15T17:19:04.299Z,58.13
2023-05-15T17:21:37.459Z,58.16
2023-05-15T17:24:08.773Z,57.77
2023-05-15T17:26:39.695Z,57.88
2023-05-15T17:29:11.068Z,57.96
2023-05-15T17:31:41.945Z,57.78
2023-05-15T17:34:12.807Z,58.13
2023-05-15T17:36:43.782Z,59.24
2023-05-15T17:39:14.734Z,58.42
2023-05-15T17:41:46.888Z,59.12
2023-05-15T17:44:17.774Z,59.64
2023-05-15T17:46:48.488Z,59.23
2023-05-15T17:49:19.262Z,58.78
2023-05-15T17:51:50.154Z,59.33
2023-05-15T17:54:20.994Z,58.70
2023-05-15T17:56:51.794Z,59.10
2023-05-15T17:59:22.647Z,58.72
2023-05-15T18:01:53.452Z,59.19
2023-05-15T18:04:24.588Z,58.91
2023-05-15T18:06:55.541Z,58.78
2023-05-15T18:09:26.700Z,58.64
2023-05-15T18:11:57.411Z,58.75
2023-05-15T18:14:28.290Z,60.17
2023-05-15T18:16:59.030Z,59.52
2023-05-15T18:19:29.854Z,59.31
2023-05-15T18:22:03.387Z,59.76
2023-05-15T18:24:34.170Z,59.31
2023-05-15T18:27:05.314Z,60.53
2023-05-15T18:29:36.051Z,59.61
2023-05-15T18:32:07.030Z,59.61
2023-05-15T18:34:37.904Z,61.13
2023-05-15T18:37:08.664Z,60.47
2023-05-15T18:39:39.895Z,59.55
2023-05-15T18:42:10.828Z,59.34
2023-05-15T18:44:41.690Z,59.24
2023-05-15T18:47:12.709Z,59.14
2023-05-15T18:49:43.587Z,59.47
2023-05-15T18:52:14.290Z,59.27
2023-05-15T18:54:45.094Z,60.02
2023-05-15T18:57:16.006Z,60.35
2023-05-15T18:59:47.904Z,59.37
2023-05-15T19:02:18.695Z,60.74
2023-05-15T19:04:49.690Z,59.67
2023-05-15T19:07:20.451Z,59.56
2023-05-15T19:09:51.203Z,59.39
2023-05-15T19:12:21.993Z,60.44
2023-05-15T19:14:52.767Z,60.67
2023-05-15T19:17:24.465Z,59.90
2023-05-15T19:19:55.594Z,60.06
2023-05-15T19:22:26.336Z,59.59
2023-05-15T19:24:57.554Z,59.48
2023-05-15T19:27:28.440Z,59.61
2023-05-15T19:29:59.428Z,60.11
2023-05-15T19:32:30.248Z,60.04
2023-05-15T19:35:01.362Z,60.17
2023-05-15T19:37:32.202Z,61.04
2023-05-15T19:40:04.307Z,61.12
2023-05-15T19:42:35.054Z,61.35
2023-05-15T19:45:07.242Z,62.62
2023-05-15T19:47:38.119Z,61.11
2023-05-15T19:50:10.450Z,60.97
2023-05-15T19:52:42.872Z,61.88
2023-05-15T19:55:15.290Z,61.75
2023-05-15T19:57:46.063Z,61.05
2023-05-15T20:00:17.376Z,61.23
2023-05-15T20:02:48.592Z,61.15
2023-05-15T20:05:19.694Z,61.12
2023-05-15T20:07:50.435Z,60.95
2023-05-15T20:10:21.729Z,61.22
2023-05-15T20:12:52.543Z,60.77
2023-05-15T20:15:23.484Z,60.76
2023-05-15T20:17:54.713Z,60.67
2023-05-15T20:20:25.739Z,60.74
2023-05-15T20:22:56.709Z,60.71
2023-05-15T20:25:29.175Z,60.64
2023-05-15T20:28:01.328Z,60.58
2023-05-15T20:30:32.273Z,60.71
2023-05-15T20:33:03.294Z,60.67
2023-05-15T20:35:34.538Z,61.14
2023-05-15T20:38:05.455Z,60.60
2023-05-15T20:40:36.326Z,60.84
2023-05-15T20:43:07.222Z,60.64
2023-05-15T20:45:38.337Z,60.75
2023-05-15T20:48:11.272Z,61.37
2023-05-15T20:50:42.433Z,61.35
2023-05-15T20:53:13.389Z,61.02
2023-05-15T20:55:44.120Z,61.30
2023-05-15T20:58:14.840Z,61.18
2023-05-15T21:00:45.753Z,61.12
2023-05-15T21:03:16.617Z,61.56
2023-05-15T21:05:49.502Z,61.23
2023-05-15T21:08:20.314Z,61.10
2023-05-15T21:10:55.464Z,61.01
